createdAt,value
2017-10-07T00:00:31.097Z,12.67
2017-10-07T00:02:59.397Z,12.07
2017-10-07T00:05:27.657Z,12.90
2017-10-07T00:07:55.914Z,12.67
2017-10-07T00:10:24.927Z,13.13
2017-10-07T00:12:53.179Z,14.13
2017-10-07T00:15:21.432Z,13.17
2017-10-07T00:17:49.694Z,11.83
2017-10-07T00:20:17.966Z,12.50
2017-10-07T00:22:46.590Z,14.57
2017-10-07T00:25:14.855Z,11.43
2017-10-07T00:27:43.115Z,10.70
2017-10-07T00:30:11.376Z,12.03
2017-10-07T00:32:39.656Z,10.17
2017-10-07T00:35:07.998Z,11.10
2017-10-07T00:37:36.249Z,13.30
2017-10-07T00:40:04.542Z,13.97
2017-10-07T00:42:33.583Z,14.80
2017-10-07T00:45:02.638Z,13.80
2017-10-07T00:47:31.704Z,13.40
2017-10-07T00:49:59.972Z,13.60
2017-10-07T00:52:29.002Z,13.40
2017-10-07T00:54:57.271Z,13.00
2017-10-07T00:57:26.316Z,14.40
2017-10-07T00:59:54.606Z,14.60
2017-10-07T01:02:22.931Z,14.33
2017-10-07T01:04:51.975Z,15.80
2017-10-07T01:07:20.304Z,15.93
2017-10-07T01:09:48.548Z,15.93
2017-10-07T01:12:16.814Z,15.63
2017-10-07T01:14:45.917Z,16.40
2017-10-07T01:17:14.175Z,14.93
2017-10-07T01:19:42.474Z,14.40
2017-10-07T01:22:10.731Z,13.33
2017-10-07T01:24:39.010Z,16.67
2017-10-07T01:27:07.292Z,14.50
2017-10-07T01:29:35.573Z,15.43
2017-10-07T01:32:05.373Z,14.40
2017-10-07T01:34:33.691Z,16.57
2017-10-07T01:37:02.060Z,16.07
2017-10-07T01:39:30.344Z,15.70
2017-10-07T01:41:58.604Z,16.20
2017-10-07T01:44:27.367Z,18.57
2017-10-07T01:46:55.631Z,18.40
2017-10-07T01:49:24.011Z,16.87
2017-10-07T01:51:52.314Z,18.77
2017-10-07T01:54:20.579Z,17.40
2017-10-07T01:56:48.856Z,16.20
2017-10-07T01:59:17.122Z,18.57
2017-10-07T02:01:46.124Z,17.33
2017-10-07T02:04:14.398Z,16.80
2017-10-07T02:06:42.671Z,18.80
2017-10-07T02:09:10.928Z,16.00
2017-10-07T02:11:39.953Z,16.20
2017-10-07T02:14:08.206Z,15.57
2017-10-07T02:16:37.233Z,14.73
2017-10-07T02:19:05.478Z,14.50
2017-10-07T02:21:34.477Z,15.70
2017-10-07T02:24:03.531Z,15.83
2017-10-07T02:26:31.803Z,17.30
2017-10-07T02:29:00.059Z,16.40
2017-10-07T02:31:28.348Z,16.63
2017-10-07T02:33:56.643Z,16.47
2017-10-07T02:36:24.898Z,14.23
2017-10-07T02:38:53.150Z,17.90
2017-10-07T02:41:21.389Z,16.67
2017-10-07T02:43:50.420Z,11.53
2017-10-07T02:46:18.665Z,10.93
2017-10-07T02:48:46.922Z,12.20
2017-10-07T02:51:15.199Z,8.30
2017-10-07T02:53:43.469Z,8.27
2017-10-07T02:56:11.728Z,6.70
2017-10-07T02:58:39.978Z,6.80
2017-10-07T03:01:08.235Z,5.80
2017-10-07T03:03:36.504Z,6.57
2017-10-07T03:06:05.553Z,7.40
2017-10-07T03:08:33.854Z,5.90
2017-10-07T03:11:02.110Z,4.70
2017-10-07T03:13:30.349Z,4.50
2017-10-07T03:15:59.350Z,4.10
2017-10-07T03:18:27.635Z,4.70
2017-10-07T03:20:55.890Z,3.60
2017-10-07T03:23:24.134Z,5.07
2017-10-07T03:25:52.398Z,4.67
2017-10-07T03:28:20.611Z,4.20
2017-10-07T03:30:48.853Z,4.67
2017-10-07T03:33:17.074Z,4.33
2017-10-07T03:35:46.113Z,4.57
2017-10-07T03:38:14.367Z,4.60
2017-10-07T03:40:42.677Z,4.27
2017-10-07T03:43:10.912Z,4.23
2017-10-07T03:45:39.907Z,3.93
2017-10-07T03:48:08.184Z,4.20
2017-10-07T03:50:37.217Z,4.03
2017-10-07T03:53:05.504Z,4.23
2017-10-07T03:55:33.752Z,5.10
2017-10-07T03:58:02.024Z,3.60
2017-10-07T04:00:30.259Z,3.40
2017-10-07T04:02:58.536Z,3.53
2017-10-07T04:05:26.815Z,4.10
2017-10-07T04:07:55.063Z,2.83
2017-10-07T04:10:23.334Z,2.80
2017-10-07T04:12:51.553Z,3.47
2017-10-07T04:15:20.558Z,3.73
2017-10-07T04:17:50.389Z,3.47
2017-10-07T04:20:18.646Z,4.20
2017-10-07T04:22:48.265Z,5.20
2017-10-07T04:25:17.277Z,4.53
2017-10-07T04:27:45.534Z,5.20
2017-10-07T04:30:14.559Z,5.87
2017-10-07T04:32:42.811Z,5.50
2017-10-07T04:35:11.822Z,4.60
2017-10-07T04:37:40.061Z,6.43
2017-10-07T04:40:08.331Z,7.07
2017-10-07T04:42:37.354Z,7.00
2017-10-07T04:45:06.367Z,6.27
2017-10-07T04:47:34.643Z,6.93
2017-10-07T04:50:03.746Z,7.10
2017-10-07T04:52:32.011Z,7.17
2017-10-07T04:55:00.244Z,6.53
2017-10-07T04:57:28.494Z,7.13
2017-10-07T04:59:57.036Z,7.97
2017-10-07T05:02:26.042Z,8.17
2017-10-07T05:04:54.296Z,7.23
2017-10-07T05:07:23.423Z,7.03
2017-10-07T05:09:51.682Z,8.03
2017-10-07T05:12:20.713Z,7.17
2017-10-07T05:14:48.937Z,8.40
2017-10-07T05:17:17.974Z,7.50
2017-10-07T05:19:46.608Z,7.30
2017-10-07T05:22:14.852Z,6.90
2017-10-07T05:24:43.295Z,9.10
2017-10-07T05:27:11.542Z,8.90
2017-10-07T05:29:39.935Z,9.70
2017-10-07T05:32:08.176Z,9.80
2017-10-07T05:34:36.453Z,8.70
2017-10-07T05:37:04.681Z,8.17
2017-10-07T05:39:32.919Z,9.30
2017-10-07T05:42:01.363Z,9.17
2017-10-07T05:44:29.650Z,8.80
2017-10-07T05:46:57.875Z,9.80
2017-10-07T05:49:26.124Z,8.23
2017-10-07T05:51:54.342Z,8.97
2017-10-07T05:54:23.351Z,9.40
2017-10-07T05:56:51.609Z,9.30
2017-10-07T05:59:19.872Z,9.00
2017-10-07T06:01:48.143Z,8.20
2017-10-07T06:04:16.395Z,9.07
2017-10-07T06:06:44.641Z,9.20
2017-10-07T06:09:12.897Z,10.10
2017-10-07T06:11:41.903Z,8.03
2017-10-07T06:14:10.197Z,9.00
2017-10-07T06:16:38.438Z,7.77
2017-10-07T06:19:06.723Z,9.10
2017-10-07T06:21:35.023Z,8.20
2017-10-07T06:24:03.316Z,7.90
2017-10-07T06:26:31.566Z,9.37
2017-10-07T06:29:00.788Z,9.30
2017-10-07T06:31:29.031Z,6.70
2017-10-07T06:33:58.059Z,7.80
2017-10-07T06:36:26.332Z,7.73
2017-10-07T06:38:54.568Z,8.73
2017-10-07T06:41:23.570Z,8.80
2017-10-07T06:43:52.579Z,6.90
2017-10-07T06:46:21.765Z,7.47
2017-10-07T06:48:50.785Z,8.70
2017-10-07T06:51:19.233Z,7.20
2017-10-07T06:53:47.461Z,8.93
2017-10-07T06:56:15.721Z,7.13
2017-10-07T06:58:43.963Z,6.70
2017-10-07T07:01:13.002Z,7.03
2017-10-07T07:03:41.249Z,6.07
2017-10-07T07:06:09.542Z,5.67
2017-10-07T07:08:37.830Z,5.33
2017-10-07T07:11:06.093Z,6.17
2017-10-07T07:13:34.337Z,5.03
2017-10-07T07:16:03.374Z,52.40
2017-10-07T07:18:31.635Z,5.87
2017-10-07T07:21:00.700Z,4.27
2017-10-07T07:23:28.965Z,4.73
2017-10-07T07:25:57.345Z,4.83
2017-10-07T07:28:25.594Z,5.10
2017-10-07T07:30:53.899Z,4.87
2017-10-07T07:33:22.184Z,4.00
2017-10-07T07:35:50.436Z,4.30
2017-10-07T07:38:18.703Z,3.80
2017-10-07T07:40:46.956Z,4.07
2017-10-07T07:43:15.308Z,4.90
2017-10-07T07:45:43.531Z,3.23
2017-10-07T07:48:11.799Z,4.37
2017-10-07T07:50:40.066Z,3.53
2017-10-07T07:53:09.059Z,5.53
2017-10-07T07:55:37.357Z,3.70
2017-10-07T07:58:05.614Z,4.00
2017-10-07T08:00:33.899Z,4.57
2017-10-07T08:03:02.189Z,4.20
2017-10-07T08:05:30.513Z,3.03
2017-10-07T08:07:59.612Z,4.17
2017-10-07T08:10:27.846Z,4.20
2017-10-07T08:12:56.535Z,3.90
2017-10-07T08:15:24.775Z,3.87
2017-10-07T08:17:53.864Z,3.53
2017-10-07T08:20:22.093Z,4.20
2017-10-07T08:22:50.391Z,4.10
2017-10-07T08:25:18.633Z,5.07
2017-10-07T08:27:47.080Z,3.60
2017-10-07T08:30:15.318Z,4.97
2017-10-07T08:32:43.568Z,3.30
2017-10-07T08:35:12.631Z,3.63
2017-10-07T08:37:41.673Z,4.27
2017-10-07T08:40:10.735Z,3.83
2017-10-07T08:42:39.765Z,3.93
2017-10-07T08:45:08.007Z,4.20
2017-10-07T08:47:36.288Z,3.80
2017-10-07T08:50:05.311Z,4.20
2017-10-07T08:52:33.591Z,3.97
2017-10-07T08:55:01.879Z,3.83
2017-10-07T08:57:30.163Z,3.50
2017-10-07T08:59:58.416Z,4.43
2017-10-07T09:02:26.704Z,3.57
2017-10-07T09:04:54.955Z,3.23
2017-10-07T09:07:23.232Z,4.03
2017-10-07T09:09:52.247Z,4.07
2017-10-07T09:12:20.535Z,3.67
2017-10-07T09:14:48.795Z,3.00
2017-10-07T09:17:17.068Z,3.97
2017-10-07T09:19:45.299Z,4.03
2017-10-07T09:22:14.372Z,4.37
2017-10-07T09:24:42.619Z,3.80
2017-10-07T09:27:10.948Z,5.30
2017-10-07T09:29:40.004Z,3.37
2017-10-07T09:32:08.419Z,3.93
2017-10-07T09:34:36.700Z,3.50
2017-10-07T09:37:04.988Z,3.90
2017-10-07T09:39:33.269Z,8.60
2017-10-07T09:42:02.327Z,4.00
2017-10-07T09:44:30.602Z,3.80
2017-10-07T09:46:58.841Z,5.60
2017-10-07T09:49:27.138Z,4.30
2017-10-07T09:51:55.423Z,3.90
2017-10-07T09:54:23.681Z,4.93
2017-10-07T09:56:51.931Z,3.87
2017-10-07T09:59:20.978Z,3.73
2017-10-07T10:01:49.304Z,4.07
2017-10-07T10:04:18.344Z,5.63
2017-10-07T10:06:46.654Z,4.03
2017-10-07T10:09:16.524Z,3.30
2017-10-07T10:11:44.854Z,3.53
2017-10-07T10:14:13.872Z,5.37
2017-10-07T10:16:42.146Z,4.30
2017-10-07T10:19:11.162Z,4.10
2017-10-07T10:21:39.454Z,5.27
2017-10-07T10:24:07.693Z,3.70
2017-10-07T10:26:36.734Z,3.73
2017-10-07T10:29:05.056Z,4.27
2017-10-07T10:31:33.291Z,3.60
2017-10-07T10:34:01.590Z,3.03
2017-10-07T10:36:29.823Z,5.30
2017-10-07T10:38:58.088Z,4.60
2017-10-07T10:41:27.101Z,3.67
2017-10-07T10:43:55.411Z,3.53
2017-10-07T10:46:23.694Z,3.67
2017-10-07T10:48:53.808Z,4.40
2017-10-07T10:51:22.301Z,3.73
2017-10-07T10:53:50.540Z,3.10
2017-10-07T10:56:18.791Z,3.30
2017-10-07T10:58:47.852Z,4.10
2017-10-07T11:01:16.114Z,3.07
2017-10-07T11:03:44.384Z,3.20
2017-10-07T11:06:12.677Z,3.10
2017-10-07T11:08:40.920Z,3.83
2017-10-07T11:11:09.160Z,3.70
2017-10-07T11:13:38.179Z,3.73
2017-10-07T11:16:06.456Z,4.70
2017-10-07T11:18:34.714Z,4.13
2017-10-07T11:21:03.751Z,3.43
2017-10-07T11:23:32.052Z,3.37
2017-10-07T11:26:01.089Z,4.93
2017-10-07T11:28:29.438Z,4.07
2017-10-07T11:30:57.667Z,3.77
2017-10-07T11:33:25.943Z,3.53
2017-10-07T11:35:54.192Z,2.37
2017-10-07T11:38:23.693Z,2.90
2017-10-07T11:40:52.219Z,3.07
2017-10-07T11:43:20.698Z,3.07
2017-10-07T11:45:48.975Z,3.70
2017-10-07T11:48:17.265Z,3.23
2017-10-07T11:50:45.573Z,2.10
2017-10-07T11:53:13.834Z,3.07
2017-10-07T11:55:42.167Z,2.40
2017-10-07T11:58:10.497Z,2.27
2017-10-07T12:00:38.754Z,2.57
2017-10-07T12:03:07.025Z,2.50
2017-10-07T12:05:37.031Z,2.90
2017-10-07T12:08:05.324Z,2.40
2017-10-07T12:10:33.664Z,2.00
2017-10-07T12:13:02.906Z,1.83
2017-10-07T12:15:31.128Z,2.07
2017-10-07T12:24:47.521Z,2.50
2017-10-07T12:27:15.767Z,2.80
2017-10-07T12:29:44.057Z,2.70
2017-10-07T12:32:13.087Z,2.60
2017-10-07T12:34:41.598Z,3.20
2017-10-07T12:37:09.910Z,1.90
2017-10-07T12:39:38.926Z,2.90
2017-10-07T12:42:07.799Z,1.93
2017-10-07T12:44:36.058Z,2.67
2017-10-07T12:47:04.632Z,1.87
2017-10-07T12:49:33.705Z,2.27
2017-10-07T12:52:01.952Z,2.33
2017-10-07T12:54:31.850Z,1.90
2017-10-07T12:57:00.125Z,2.00
2017-10-07T12:59:28.393Z,2.53
2017-10-07T13:01:56.703Z,1.90
2017-10-07T13:04:24.936Z,2.57
2017-10-07T13:06:54.002Z,2.60
2017-10-07T13:09:22.335Z,1.77
2017-10-07T13:11:50.614Z,2.30
2017-10-07T13:14:18.857Z,2.10
2017-10-07T13:16:47.594Z,2.23
2017-10-07T13:19:15.846Z,2.00
2017-10-07T13:21:44.230Z,1.77
2017-10-07T13:24:12.506Z,2.30
2017-10-07T13:26:40.779Z,3.93
2017-10-07T13:29:10.586Z,2.17
2017-10-07T13:31:38.826Z,1.90
2017-10-07T13:34:07.114Z,1.70
2017-10-07T13:36:36.188Z,2.20
2017-10-07T13:39:04.544Z,1.40
2017-10-07T13:41:32.782Z,1.80
2017-10-07T13:44:01.818Z,1.83
2017-10-07T13:46:30.926Z,1.70
2017-10-07T13:48:59.163Z,1.80
2017-10-07T13:51:27.454Z,1.57
2017-10-07T13:53:55.715Z,1.30
2017-10-07T13:56:24.773Z,1.57
2017-10-07T13:58:53.024Z,1.90
2017-10-07T14:01:21.317Z,2.03
2017-10-07T14:03:49.679Z,1.70
2017-10-07T14:06:17.944Z,2.00
2017-10-07T14:08:46.242Z,1.40
2017-10-07T14:11:14.473Z,2.00
2017-10-07T14:13:42.752Z,1.43
2017-10-07T14:16:11.028Z,1.40
2017-10-07T14:18:40.513Z,1.47
2017-10-07T14:21:08.741Z,1.50
2017-10-07T14:23:37.021Z,1.50
2017-10-07T14:26:05.383Z,1.63
2017-10-07T14:28:33.671Z,1.57
2017-10-07T14:31:01.953Z,1.90
2017-10-07T14:33:30.263Z,1.77
2017-10-07T14:35:58.657Z,1.40
2017-10-07T14:38:26.900Z,1.73
2017-10-07T14:40:55.192Z,1.70
2017-10-07T14:43:24.637Z,1.30
2017-10-07T14:45:53.667Z,2.20
2017-10-07T14:48:22.445Z,1.40
2017-10-07T14:50:52.073Z,1.83
2017-10-07T14:53:20.669Z,1.27
2017-10-07T14:55:48.916Z,1.63
2017-10-07T14:58:17.170Z,1.77
2017-10-07T15:00:46.270Z,1.27
2017-10-07T15:03:15.313Z,1.30
2017-10-07T15:05:43.577Z,1.37
2017-10-07T15:08:11.879Z,1.33
2017-10-07T15:10:40.157Z,1.30
2017-10-07T15:13:08.463Z,1.83
2017-10-07T15:15:36.761Z,1.60
2017-10-07T15:18:05.061Z,1.53
2017-10-07T15:20:33.315Z,1.53
2017-10-07T15:23:01.580Z,1.90
2017-10-07T15:25:30.660Z,1.73
2017-10-07T15:27:58.888Z,1.50
2017-10-07T15:30:27.164Z,1.33
2017-10-07T15:32:55.507Z,1.77
2017-10-07T15:35:23.870Z,1.50
2017-10-07T15:37:52.147Z,1.23
2017-10-07T15:40:20.443Z,1.20
2017-10-07T15:42:49.479Z,1.80
2017-10-07T15:45:17.735Z,1.47
2017-10-07T15:47:46.281Z,1.13
2017-10-07T15:50:14.566Z,1.63
2017-10-07T15:52:42.804Z,1.50
2017-10-07T15:55:11.077Z,1.40
2017-10-07T15:57:39.324Z,1.33
2017-10-07T16:00:07.733Z,1.90
2017-10-07T16:02:36.050Z,1.50
2017-10-07T16:05:04.334Z,1.77
2017-10-07T16:07:32.571Z,1.37
2017-10-07T16:10:01.063Z,1.47
2017-10-07T16:12:30.161Z,1.70
2017-10-07T16:14:58.420Z,1.50
2017-10-07T16:17:26.663Z,1.20
2017-10-07T16:19:55.846Z,1.10
2017-10-07T16:22:24.417Z,2.47
2017-10-07T16:24:52.694Z,1.50
2017-10-07T16:27:20.968Z,1.60
2017-10-07T16:29:49.873Z,1.80
2017-10-07T16:32:18.107Z,7.33
2017-10-07T16:34:46.363Z,1.43
2017-10-07T16:37:14.688Z,2.30
2017-10-07T16:39:42.959Z,1.50
2017-10-07T16:42:13.023Z,2.20
2017-10-07T16:44:42.133Z,1.50
2017-10-07T16:47:10.438Z,2.13
2017-10-07T16:49:38.774Z,2.30
2017-10-07T16:52:08.158Z,1.53
2017-10-07T16:54:37.928Z,1.37
2017-10-07T16:57:06.201Z,1.97
2017-10-07T16:59:34.453Z,2.40
2017-10-07T17:02:03.001Z,1.60
2017-10-07T17:04:31.280Z,1.50
2017-10-07T17:06:59.567Z,1.70
2017-10-07T17:09:28.587Z,1.20
2017-10-07T17:11:56.876Z,1.67
2017-10-07T17:14:25.991Z,1.27
2017-10-07T17:16:55.134Z,2.53
2017-10-07T17:19:24.170Z,1.07
2017-10-07T17:21:52.458Z,1.37
2017-10-07T17:24:21.027Z,1.63
2017-10-07T17:26:49.298Z,1.50
2017-10-07T17:29:18.339Z,1.93
2017-10-07T17:31:46.587Z,1.70
2017-10-07T17:34:14.956Z,1.90
2017-10-07T17:36:43.225Z,2.20
2017-10-07T17:39:12.247Z,2.10
2017-10-07T17:41:40.495Z,1.70
2017-10-07T17:44:08.775Z,1.57
2017-10-07T17:46:37.054Z,2.00
2017-10-07T17:49:05.555Z,1.60
2017-10-07T17:51:33.785Z,2.10
2017-10-07T17:54:03.198Z,1.83
2017-10-07T17:56:32.201Z,1.70
2017-10-07T17:59:00.474Z,1.80
2017-10-07T18:01:28.769Z,1.67
2017-10-07T18:03:57.103Z,1.90
2017-10-07T18:06:25.387Z,1.73
2017-10-07T18:08:53.629Z,1.70
2017-10-07T18:11:21.918Z,1.70
2017-10-07T18:13:50.213Z,1.90
2017-10-07T18:16:18.795Z,1.70
2017-10-07T18:18:47.394Z,1.90
2017-10-07T18:21:15.633Z,2.17
2017-10-07T18:23:43.913Z,3.47
2017-10-07T18:26:12.189Z,1.80
2017-10-07T18:28:40.491Z,3.40
2017-10-07T18:31:09.540Z,1.90
2017-10-07T18:33:37.831Z,1.60
2017-10-07T18:36:06.147Z,2.27
2017-10-07T18:38:34.515Z,2.60
2017-10-07T18:41:03.804Z,1.53
2017-10-07T18:43:32.198Z,1.87
2017-10-07T18:46:01.285Z,1.90
2017-10-07T18:48:29.589Z,1.90
2017-10-07T18:50:57.881Z,2.10
2017-10-07T18:53:26.549Z,2.60
2017-10-07T18:55:54.936Z,2.47
2017-10-07T18:58:23.174Z,2.87
2017-10-07T19:00:51.458Z,3.50
2017-10-07T19:03:19.687Z,2.40
2017-10-07T19:05:47.946Z,3.00
2017-10-07T19:08:17.816Z,3.17
2017-10-07T19:10:46.063Z,2.93
2017-10-07T19:13:14.353Z,3.97
2017-10-07T19:15:42.638Z,3.27
2017-10-07T19:18:10.896Z,3.90
2017-10-07T19:20:39.147Z,2.77
2017-10-07T19:23:08.204Z,3.63
2017-10-07T19:25:36.625Z,3.00
2017-10-07T19:28:04.906Z,3.73
2017-10-07T19:30:33.959Z,3.87
2017-10-07T19:33:02.201Z,4.10
2017-10-07T19:35:30.480Z,3.37
2017-10-07T19:37:59.520Z,2.97
2017-10-07T19:40:27.775Z,2.80
2017-10-07T19:42:56.025Z,3.47
2017-10-07T19:45:24.338Z,2.57
2017-10-07T19:47:52.609Z,2.63
2017-10-07T19:50:20.861Z,3.03
2017-10-07T19:52:49.100Z,2.90
2017-10-07T19:55:18.200Z,2.70
2017-10-07T19:57:47.694Z,2.73
2017-10-07T20:00:15.958Z,2.90
2017-10-07T20:02:44.222Z,2.43
2017-10-07T20:05:12.488Z,2.60
2017-10-07T20:07:40.779Z,2.40
2017-10-07T20:10:09.054Z,2.73
2017-10-07T20:12:37.356Z,2.57
2017-10-07T20:15:05.621Z,2.90
2017-10-07T20:17:33.915Z,2.70
2017-10-07T20:20:02.977Z,2.10
2017-10-07T20:22:31.239Z,2.23
2017-10-07T20:24:59.562Z,1.57
2017-10-07T20:27:27.826Z,1.80
2017-10-07T20:29:56.551Z,3.20
2017-10-07T20:32:25.556Z,3.63
2017-10-07T20:34:54.751Z,3.03
2017-10-07T20:37:23.757Z,3.63
2017-10-07T20:39:52.058Z,2.00
2017-10-07T20:42:20.350Z,2.40
2017-10-07T20:44:48.660Z,3.40
2017-10-07T20:47:17.688Z,2.53
2017-10-07T20:49:45.962Z,2.60
2017-10-07T20:52:15.184Z,2.17
2017-10-07T20:54:43.508Z,3.13
2017-10-07T20:57:12.985Z,2.70
2017-10-07T20:59:41.269Z,2.83
2017-10-07T21:02:09.532Z,2.10
2017-10-07T21:04:37.821Z,2.60
2017-10-07T21:07:06.069Z,2.80
2017-10-07T21:09:34.336Z,4.70
2017-10-07T21:12:03.393Z,3.47
2017-10-07T21:14:32.468Z,3.37
2017-10-07T21:17:00.674Z,2.30
2017-10-07T21:19:28.938Z,3.20
2017-10-07T21:21:57.221Z,2.53
2017-10-07T21:24:25.458Z,3.70
2017-10-07T21:26:54.633Z,2.60
2017-10-07T21:29:22.929Z,3.00
2017-10-07T21:31:51.199Z,2.80
2017-10-07T21:34:19.474Z,2.90
2017-10-07T21:36:47.733Z,2.20
2017-10-07T21:39:16.774Z,3.23
2017-10-07T21:41:45.070Z,2.07
2017-10-07T21:44:13.324Z,2.80
2017-10-07T21:46:41.664Z,2.93
2017-10-07T21:49:10.707Z,9.23
2017-10-07T21:51:39.036Z,2.00
2017-10-07T21:54:08.072Z,2.07
2017-10-07T21:56:36.349Z,3.23
2017-10-07T21:59:04.617Z,1.90
2017-10-07T22:01:32.912Z,1.83
2017-10-07T22:04:01.960Z,2.60
2017-10-07T22:06:30.597Z,1.97
2017-10-07T22:08:58.846Z,1.67
2017-10-07T22:11:27.101Z,1.60
2017-10-07T22:13:55.370Z,1.97
2017-10-07T22:16:23.675Z,2.17
2017-10-07T22:18:51.944Z,2.40
2017-10-07T22:21:20.180Z,2.30
2017-10-07T22:23:48.431Z,1.40
2017-10-07T22:26:16.699Z,2.43
2017-10-07T22:28:44.942Z,1.93
2017-10-07T22:31:13.236Z,1.60
2017-10-07T22:33:41.530Z,2.10
2017-10-07T22:36:09.760Z,1.70
2017-10-07T22:38:38.046Z,1.70
2017-10-07T22:41:06.306Z,1.77
2017-10-07T22:43:34.567Z,2.00
2017-10-07T22:46:02.826Z,2.10
2017-10-07T22:48:31.092Z,2.20
2017-10-07T22:50:59.349Z,1.80
2017-10-07T22:53:27.805Z,1.67
2017-10-07T22:55:56.116Z,1.80
2017-10-07T22:58:24.387Z,1.50
2017-10-07T23:00:52.697Z,1.70
2017-10-07T23:03:21.747Z,2.30
2017-10-07T23:05:50.002Z,1.87
2017-10-07T23:08:19.010Z,2.30
2017-10-07T23:10:47.322Z,2.20
2017-10-07T23:13:15.550Z,1.60
2017-10-07T23:15:43.887Z,1.77
2017-10-07T23:18:12.144Z,1.73
2017-10-07T23:20:40.405Z,1.70
2017-10-07T23:23:09.436Z,1.57
2017-10-07T23:25:38.497Z,1.60
2017-10-07T23:28:06.754Z,1.97
2017-10-07T23:30:36.288Z,1.50
2017-10-07T23:33:04.636Z,2.03
2017-10-07T23:35:33.795Z,1.80
2017-10-07T23:38:02.100Z,1.50
2017-10-07T23:40:30.321Z,3.13
2017-10-07T23:42:58.595Z,2.10
2017-10-07T23:45:26.850Z,2.40
2017-10-07T23:47:55.887Z,3.53
2017-10-07T23:50:24.176Z,2.30
2017-10-07T23:52:52.793Z,3.53
2017-10-07T23:55:21.820Z,3.27
2017-10-07T23:57:50.830Z,3.70
